Time;durP1;ratioP1;P1;durP2;ratioP2;P2;SDS_P1;SDS_P2;PMS_P1;PMS_P2;Temp;Humidity;BMP_temperature;BMP_pressure;BME280_temperature;BME280_humidity;BME280_pressure;Samples;Min_cycle;Max_cycle;Signal;HPM_P1;HPM_P2
2022/07/11 00:00:20;;;;;;;6.78;3.15;;;;;;;18.82;65.55;100531.41;5090612;28;20503;-60
2022/07/11 00:02:47;;;;;;;7.82;3.55;;;;;;;18.81;65.49;100521.72;5090671;28;20052;-61
2022/07/11 00:05:14;;;;;;;11.18;3.17;;;;;;;18.83;65.35;100526.91;5090617;28;20059;-62
2022/07/11 00:07:40;;;;;;;7.90;3.50;;;;;;;18.83;65.87;100522.44;5090425;28;20044;-63
2022/07/11 00:10:07;;;;;;;5.65;3.40;;;;;;;18.83;65.47;100527.75;5090688;28;20105;-62
2022/07/11 00:12:34;;;;;;;6.35;3.33;;;;;;;18.84;65.54;100524.13;5090854;28;20055;-62
2022/07/11 00:15:00;;;;;;;6.13;3.08;;;;;;;18.85;65.18;100530.31;5090779;28;20059;-61
2022/07/11 00:17:27;;;;;;;6.28;3.25;;;;;;;18.85;65.46;100528.50;5089480;28;20057;-62
2022/07/11 00:19:54;;;;;;;11.10;3.45;;;;;;;18.86;65.25;100532.00;5090265;28;20052;-64
2022/07/11 00:22:21;;;;;;;8.00;3.17;;;;;;;18.84;65.53;100526.78;5090565;28;20139;-62
2022/07/11 00:24:47;;;;;;;5.20;2.80;;;;;;;18.84;65.47;100526.78;5090394;28;20113;-63
2022/07/11 00:27:14;;;;;;;5.90;3.28;;;;;;;18.83;65.26;100522.44;5090714;28;20048;-62
2022/07/11 00:29:41;;;;;;;4.65;3.00;;;;;;;18.83;65.37;100525.09;5090064;28;20048;-62
2022/07/11 00:32:08;;;;;;;5.30;3.33;;;;;;;18.80;65.59;100522.66;5094745;28;20047;-63
2022/07/11 00:34:35;;;;;;;9.55;3.20;;;;;;;18.79;65.64;100518.31;5094474;28;20051;-63
2022/07/11 00:37:02;;;;;;;8.73;3.28;;;;;;;18.78;65.32;100523.75;5094588;28;20507;-62
2022/07/11 00:39:28;;;;;;;5.70;3.15;;;;;;;18.74;65.36;100515.16;5094380;28;20066;-62
2022/07/11 00:41:55;;;;;;;7.50;3.17;;;;;;;18.72;65.41;100517.94;5094410;28;20118;-61
2022/07/11 00:44:21;;;;;;;8.60;3.22;;;;;;;18.70;65.54;100511.91;5094500;28;20051;-62
2022/07/11 00:46:48;;;;;;;6.32;3.55;;;;;;;18.69;65.62;100514.69;5094484;28;20052;-65
2022/07/11 00:49:15;;;;;;;7.68;3.60;;;;;;;18.69;65.97;100514.69;5094022;28;20059;-61
2022/07/11 00:51:42;;;;;;;8.55;3.50;;;;;;;18.67;65.97;100516.63;5094597;28;20099;-62
2022/07/11 00:54:10;;;;;;;9.25;3.63;;;;;;;18.67;65.92;100516.63;5094144;28;20514;-62
2022/07/11 00:56:38;;;;;;;7.18;3.50;;;;;;;18.66;65.80;100515.78;5092826;28;20055;-63
2022/07/11 00:59:04;;;;;;;5.82;3.30;;;;;;;18.66;66.04;100517.59;5093937;28;20055;-63
2022/07/11 01:01:32;;;;;;;5.85;3.30;;;;;;;18.65;66.00;100514.06;5094042;28;20573;-62
2022/07/11 01:03:59;;;;;;;6.88;3.33;;;;;;;18.66;65.80;100517.59;5093954;28;20051;-63
2022/07/11 01:06:26;;;;;;;9.52;3.80;;;;;;;18.65;65.97;100519.41;5093879;28;20040;-62
2022/07/11 01:08:52;;;;;;;10.18;3.90;;;;;;;18.65;65.89;100515.91;5094027;28;20056;-65
2022/07/11 01:11:20;;;;;;;7.05;3.40;;;;;;;18.64;66.25;100516.88;5093994;28;20048;-62
2022/07/11 01:13:47;;;;;;;8.75;3.75;;;;;;;18.64;66.07;100508.88;5093874;28;20044;-63
2022/07/11 01:16:14;;;;;;;5.55;3.53;;;;;;;18.64;66.22;100508.88;5093942;28;20052;-62
2022/07/11 01:18:44;;;;;;;14.02;4.47;;;;;;;18.64;66.19;100512.38;5093547;28;20044;-63
2022/07/11 01:21:19;;;;;;;6.95;3.40;;;;;;;18.62;66.91;100514.34;5092438;28;20135;-62
2022/07/11 01:23:47;;;;;;;6.88;3.33;;;;;;;18.66;66.28;100509.59;5093946;28;20047;-63
2022/07/11 01:26:16;;;;;;;8.68;4.32;;;;;;;18.65;66.49;100515.91;5092343;28;20048;-60
2022/07/11 01:28:43;;;;;;;5.60;3.75;;;;;;;18.66;66.10;100509.59;5092054;28;20052;-61
2022/07/11 01:31:10;;;;;;;7.68;4.00;;;;;;;18.65;66.23;100510.56;5093480;28;20059;-62
2022/07/11 01:33:37;;;;;;;7.70;3.58;;;;;;;18.65;66.53;100514.06;5093672;28;20087;-64
2022/07/11 01:36:05;;;;;;;5.70;3.75;;;;;;;18.66;66.50;100514.94;5093578;28;20098;-63
2022/07/11 01:38:31;;;;;;;5.25;3.05;;;;;;;18.68;66.47;100510.31;5093098;28;20484;-63
2022/07/11 01:40:58;;;;;;;6.90;3.53;;;;;;;18.68;66.36;100510.31;5093059;28;20048;-63
2022/07/11 01:43:25;;;;;;;7.38;3.85;;;;;;;18.68;66.44;100511.16;5093241;28;20488;-61
2022/07/11 01:45:53;;;;;;;12.70;4.20;;;;;;;18.69;66.56;100512.03;5092463;28;20063;-61
2022/07/11 01:48:20;;;;;;;6.75;3.85;;;;;;;18.68;66.33;100503.16;5092897;28;20433;-64
2022/07/11 01:50:48;;;;;;;5.28;3.65;;;;;;;18.67;66.47;100511.28;5091937;28;20047;-61
2022/07/11 01:53:15;;;;;;;6.20;3.92;;;;;;;18.66;66.51;100505.13;5093140;28;20056;-62
2022/07/11 01:55:42;;;;;;;6.90;3.65;;;;;;;18.66;66.45;100507.78;5093119;28;20086;-63
2022/07/11 01:58:30;;;;;;;10.07;3.42;;;;;;;18.66;66.72;100505.13;5092826;28;20048;-61
2022/07/11 02:00:58;;;;;;;5.88;3.53;;;;;;;18.65;66.69;100499.91;5093215;28;20044;-62
2022/07/11 02:03:24;;;;;;;7.07;3.80;;;;;;;18.64;66.61;100501.72;5091521;28;20048;-62
2022/07/11 02:05:51;;;;;;;4.68;3.13;;;;;;;18.62;66.56;100499.16;5092904;28;20052;-62
2022/07/11 02:08:18;;;;;;;10.95;3.83;;;;;;;18.62;66.65;100499.16;5092552;28;20048;-62
2022/07/11 02:10:50;;;;;;;9.95;3.50;;;;;;;18.60;66.65;100495.78;5092800;28;20109;-62
2022/07/11 02:13:19;;;;;;;8.35;4.00;;;;;;;18.60;66.65;100501.13;5092862;28;20063;-61
2022/07/11 02:15:47;;;;;;;4.55;3.10;;;;;;;18.60;66.58;100495.78;5092698;28;20055;-64
2022/07/11 02:18:14;;;;;;;6.63;3.30;;;;;;;18.59;66.54;100496.75;5091045;28;20059;-63
2022/07/11 02:20:41;;;;;;;5.90;2.97;;;;;;;18.59;66.49;100499.44;5092533;28;20548;-61
2022/07/11 02:23:09;;;;;;;3.75;3.30;;;;;;;18.59;66.57;100502.09;5092360;28;20052;-63
2022/07/11 02:25:38;;;;;;;6.22;2.63;;;;;;;18.58;66.30;100496.88;5092831;28;20060;-62
2022/07/11 02:28:08;;;;;;;8.30;3.30;;;;;;;18.57;66.56;100498.69;5092183;28;20056;-62
2022/07/11 02:30:35;;;;;;;6.80;2.78;;;;;;;18.55;66.16;100494.44;5090897;28;20095;-64
2022/07/11 02:33:03;;;;;;;7.88;2.97;;;;;;;18.55;66.42;100497.13;5091087;28;20044;-62
2022/07/11 02:35:31;;;;;;;6.18;2.55;;;;;;;18.53;66.43;100505.22;5091139;28;20044;-62
2022/07/11 02:37:57;;;;;;;9.18;2.75;;;;;;;18.52;66.58;100498.22;5091103;28;20082;-62
2022/07/11 02:40:24;;;;;;;7.07;2.65;;;;;;;18.51;66.25;100501.84;5092116;28;20041;-61
2022/07/11 02:42:51;;;;;;;6.05;2.25;;;;;;;18.51;66.79;100501.84;5091043;28;20105;-64
2022/07/11 02:45:17;;;;;;;8.98;2.58;;;;;;;18.50;66.49;100505.47;5092201;28;20059;-62
2022/07/11 02:47:45;;;;;;;5.28;2.47;;;;;;;18.49;66.44;100503.78;5092044;28;20135;-61
2022/07/11 02:50:13;;;;;;;4.38;2.33;;;;;;;18.49;66.40;100503.78;5091513;28;20059;-63
2022/07/11 02:52:41;;;;;;;4.38;2.28;;;;;;;18.49;66.54;100507.28;5089988;28;20051;-61
2022/07/11 02:55:09;;;;;;;7.22;2.38;;;;;;;18.49;66.38;100509.09;5092327;28;20059;-61
2022/07/11 02:57:38;;;;;;;5.45;2.03;;;;;;;18.48;66.44;100502.94;5090946;28;20062;-62
2022/07/11 03:00:07;;;;;;;5.07;2.08;;;;;;;18.48;66.41;100500.28;5091525;28;20048;-61
2022/07/11 03:02:33;;;;;;;2.25;2.00;;;;;;;18.49;66.26;100503.78;5091692;28;20052;-62
2022/07/11 03:05:00;;;;;;;4.78;2.33;;;;;;;18.51;66.22;100501.00;5091913;28;20051;-61
2022/07/11 03:07:28;;;;;;;10.73;2.45;;;;;;;18.49;66.46;100506.44;5091965;28;20048;-61
2022/07/11 03:09:55;;;;;;;4.63;2.30;;;;;;;18.48;66.26;100508.28;5091581;28;20048;-62
2022/07/11 03:12:22;;;;;;;6.10;2.35;;;;;;;18.49;66.30;100509.09;5091736;28;20052;-61
2022/07/11 03:14:49;;;;;;;2.92;2.08;;;;;;;18.48;66.31;100510.94;5090300;28;20076;-63
2022/07/11 03:17:17;;;;;;;3.35;2.22;;;;;;;18.47;66.61;100511.88;5091491;28;20424;-63
2022/07/11 03:19:44;;;;;;;9.30;2.90;;;;;;;18.46;66.29;100512.84;5091211;28;20113;-63
2022/07/11 03:22:10;;;;;;;5.18;2.35;;;;;;;18.46;66.15;100512.00;5091649;28;20052;-62
2022/07/11 03:24:37;;;;;;;6.60;2.33;;;;;;;18.44;66.34;100517.47;5091368;28;20055;-62
2022/07/11 03:27:05;;;;;;;7.00;2.28;;;;;;;18.42;66.40;100523.88;5091378;28;20471;-62
2022/07/11 03:29:38;;;;;;;4.88;2.40;;;;;;;18.43;66.69;100520.25;5091071;28;20059;-62
2022/07/11 03:32:05;;;;;;;4.43;2.25;;;;;;;18.40;66.76;100520.50;5091184;28;20044;-61
2022/07/11 03:34:32;;;;;;;3.55;2.20;;;;;;;18.40;66.60;100515.16;5091261;28;20048;-62
2022/07/11 03:36:58;;;;;;;4.28;2.00;;;;;;;18.40;66.85;100523.16;5091264;28;20516;-62
2022/07/11 03:39:25;;;;;;;2.25;1.95;;;;;;;18.40;66.69;100520.50;5090924;28;20096;-62
2022/07/11 03:41:52;;;;;;;5.30;2.05;;;;;;;18.40;66.70;100525.81;5091187;28;20134;-64
2022/07/11 03:44:19;;;;;;;4.72;2.13;;;;;;;18.40;66.40;100523.16;5090905;28;20058;-64
2022/07/11 03:46:46;;;;;;;3.47;1.92;;;;;;;18.40;66.37;100525.81;5091199;28;20044;-62
2022/07/11 03:49:13;;;;;;;2.78;2.13;;;;;;;18.38;66.38;100527.78;5090944;28;20047;-61
2022/07/11 03:51:39;;;;;;;7.07;2.33;;;;;;;18.37;66.52;100521.59;5091004;28;20048;-62
2022/07/11 03:54:06;;;;;;;5.10;2.28;;;;;;;18.35;66.71;100524.38;5090991;28;20059;-63
2022/07/11 03:56:33;;;;;;;3.20;2.20;;;;;;;18.35;66.77;100526.16;5090754;28;20044;-61
2022/07/11 03:58:59;;;;;;;6.55;2.83;;;;;;;18.34;66.91;100525.34;5090522;28;20055;-62
2022/07/11 04:01:26;;;;;;;5.22;2.30;;;;;;;18.33;66.91;100530.78;5090811;28;20052;-61
2022/07/11 04:03:53;;;;;;;4.07;1.88;;;;;;;18.34;66.84;100528.00;5090215;28;20127;-62
2022/07/11 04:06:19;;;;;;;3.38;2.17;;;;;;;18.34;66.75;100520.00;5090536;28;20047;-62
2022/07/11 04:08:46;;;;;;;3.28;2.17;;;;;;;18.34;66.56;100532.47;5089539;28;20060;-61
2022/07/11 04:11:12;;;;;;;5.57;2.33;;;;;;;18.34;66.43;100521.81;5090675;28;20048;-64
2022/07/11 04:13:39;;;;;;;3.60;2.15;;;;;;;18.34;66.54;100524.47;5089300;28;20456;-61
2022/07/11 04:16:06;;;;;;;3.33;2.30;;;;;;;18.34;66.85;100524.47;5090710;28;20056;-61
2022/07/11 04:18:33;;;;;;;3.03;2.40;;;;;;;18.34;66.80;100529.81;5090543;28;20073;-64
2022/07/11 04:21:00;;;;;;;4.82;2.33;;;;;;;18.32;66.73;100529.91;5090633;28;20084;-62
2022/07/11 04:23:34;;;;;;;2.38;2.05;;;;;;;18.32;66.42;100529.91;5090703;28;20052;-62
2022/07/11 04:26:00;;;;;;;5.13;2.28;;;;;;;18.33;66.69;100531.66;5090463;28;20048;-63
2022/07/11 04:28:27;;;;;;;3.63;2.35;;;;;;;18.31;66.56;100530.91;5090616;28;20108;-64
2022/07/11 04:30:53;;;;;;;5.82;2.55;;;;;;;18.29;66.51;100535.50;5090617;28;20507;-62
2022/07/11 04:33:20;;;;;;;6.85;2.53;;;;;;;18.29;66.59;100535.50;5090736;28;20048;-61
2022/07/11 04:35:46;;;;;;;5.72;2.38;;;;;;;18.29;66.66;100538.19;5090565;28;20044;-61
2022/07/11 04:38:13;;;;;;;6.68;2.33;;;;;;;18.28;66.96;100533.78;5090171;28;20048;-62
2022/07/11 04:40:40;;;;;;;2.97;2.30;;;;;;;18.29;66.75;100532.84;5090315;28;20051;-61
2022/07/11 04:43:06;;;;;;;4.05;2.30;;;;;;;18.30;66.78;100537.19;5090329;28;20055;-61
2022/07/11 04:45:33;;;;;;;5.78;2.80;;;;;;;18.30;66.97;100534.53;5090615;28;20071;-62
2022/07/11 04:48:01;;;;;;;2.85;2.05;;;;;;;18.31;66.95;100538.88;5090217;28;20135;-62
2022/07/11 04:50:29;;;;;;;4.75;2.40;;;;;;;18.32;67.16;100540.59;5090435;28;20484;-62
2022/07/11 04:52:55;;;;;;;7.90;2.45;;;;;;;18.33;67.17;100544.97;5088909;28;20067;-62
2022/07/11 04:55:22;;;;;;;4.18;2.30;;;;;;;18.34;67.08;100537.81;5090350;28;20060;-62
2022/07/11 04:57:49;;;;;;;5.05;2.50;;;;;;;18.34;67.15;100546.66;5090213;28;20055;-61
2022/07/11 05:00:16;;;;;;;5.57;2.60;;;;;;;18.36;67.16;100546.53;5088746;28;20059;-62
2022/07/11 05:02:43;;;;;;;3.63;2.35;;;;;;;18.36;67.41;100550.03;5089887;28;20117;-61
2022/07/11 05:05:10;;;;;;;6.60;2.65;;;;;;;18.38;67.06;100544.59;5090175;28;20054;-63
2022/07/11 05:07:36;;;;;;;4.32;2.67;;;;;;;18.39;67.08;100550.78;5090166;28;20101;-64
2022/07/11 05:10:04;;;;;;;2.70;2.20;;;;;;;18.40;67.40;100552.47;5090117;28;20140;-60
2022/07/11 05:12:31;;;;;;;4.30;2.55;;;;;;;18.42;67.09;100547.84;5088737;28;20040;-62
2022/07/11 05:15:00;;;;;;;4.38;2.78;;;;;;;18.45;67.54;100556.47;5089924;28;20559;-68
2022/07/11 05:17:27;;;;;;;6.22;2.45;;;;;;;18.48;67.17;100555.41;5093904;28;20590;-63
2022/07/11 05:19:54;;;;;;;6.88;2.95;;;;;;;18.49;67.66;100557.94;5093499;28;20681;-62
2022/07/11 05:22:21;;;;;;;4.88;2.92;;;;;;;18.52;67.51;100561.31;5093758;28;20095;-62
2022/07/11 05:24:47;;;;;;;4.40;2.28;;;;;;;18.54;67.49;100560.22;5092617;28;20055;-62
2022/07/11 05:27:14;;;;;;;2.83;2.42;;;;;;;18.57;67.28;100562.66;5092230;28;20063;-64
2022/07/11 05:29:41;;;;;;;5.55;2.72;;;;;;;18.60;67.41;100561.59;5093292;28;20063;-62
2022/07/11 05:32:07;;;;;;;4.78;2.75;;;;;;;18.62;67.25;100568.50;5093235;28;20040;-62
2022/07/11 05:34:34;;;;;;;3.95;2.45;;;;;;;18.66;67.36;100568.25;5075152;28;20496;-64
2022/07/11 05:37:01;;;;;;;3.45;2.60;;;;;;;18.68;67.35;100568.97;5093178;28;20047;-62
2022/07/11 05:39:28;;;;;;;5.40;2.70;;;;;;;18.69;67.33;100574.19;5093195;28;20059;-62
2022/07/11 05:41:55;;;;;;;5.47;2.60;;;;;;;18.69;67.30;100566.19;5093288;28;20063;-63
2022/07/11 05:44:21;;;;;;;2.30;2.00;;;;;;;18.70;66.84;100570.56;5093232;28;20535;-62
2022/07/11 05:46:48;;;;;;;7.38;2.15;;;;;;;18.72;66.86;100575.75;5093408;28;20055;-62
2022/07/11 05:49:15;;;;;;;6.78;2.15;;;;;;;18.72;66.85;100578.44;5092785;28;20044;-62
2022/07/11 05:51:41;;;;;;;2.35;1.83;;;;;;;18.73;67.07;100575.66;5093346;28;20056;-61
2022/07/11 05:54:08;;;;;;;4.68;1.90;;;;;;;18.73;66.75;100574.81;5093302;28;20051;-62
2022/07/11 05:56:35;;;;;;;3.10;1.60;;;;;;;18.73;66.91;100580.16;5091717;28;20055;-63
2022/07/11 05:59:01;;;;;;;1.42;1.30;;;;;;;18.75;66.93;100578.19;5092892;28;20567;-63
2022/07/11 06:01:28;;;;;;;1.75;1.20;;;;;;;18.73;66.70;100570.31;5092873;28;20044;-62
2022/07/11 06:04:02;;;;;;;2.20;1.20;;;;;;;18.73;66.57;100575.66;5092953;28;20052;-61
2022/07/11 06:06:29;;;;;;;1.92;1.40;;;;;;;18.74;66.91;100579.16;5091608;28;20488;-64
2022/07/11 06:08:56;;;;;;;2.30;1.20;;;;;;;18.73;66.59;100582.81;5091429;28;20083;-62
2022/07/11 06:11:23;;;;;;;1.88;1.08;;;;;;;18.73;67.07;100577.47;5092879;28;20055;-63
2022/07/11 06:13:50;;;;;;;1.95;1.27;;;;;;;18.73;66.74;100575.66;5092784;28;20052;-64
2022/07/11 06:16:22;;;;;;;2.97;1.33;;;;;;;18.74;66.70;100579.16;5091369;28;20048;-62
2022/07/11 06:18:50;;;;;;;1.20;1.10;;;;;;;18.75;66.92;100580.88;5092418;28;20079;-63
2022/07/11 06:21:18;;;;;;;4.85;1.40;;;;;;;18.77;66.99;100583.41;5092726;28;20055;-61
2022/07/11 06:23:44;;;;;;;1.88;1.17;;;;;;;18.79;67.08;100578.78;5092552;28;20048;-62
2022/07/11 06:26:14;;;;;;;2.50;1.35;;;;;;;18.80;67.09;100581.34;5092284;28;20146;-62
2022/07/11 06:28:41;;;;;;;2.15;1.30;;;;;;;18.84;67.15;100588.13;5091597;28;20059;-62
2022/07/11 06:31:08;;;;;;;3.30;1.60;;;;;;;18.88;67.26;100583.44;5092731;28;20395;-63
2022/07/11 06:33:35;;;;;;;2.63;1.55;;;;;;;18.89;67.08;100585.13;5092715;28;20093;-62
2022/07/11 06:36:04;;;;;;;2.42;1.65;;;;;;;18.92;67.30;100584.03;5092365;28;20412;-63
2022/07/11 06:38:32;;;;;;;2.63;1.73;;;;;;;18.95;66.92;100583.78;5090831;28;20044;-63
2022/07/11 06:40:58;;;;;;;2.40;1.60;;;;;;;18.98;67.20;100589.72;5092129;28;20077;-62
2022/07/11 06:43:25;;;;;;;2.38;1.40;;;;;;;19.02;67.41;100587.66;5090882;28;20151;-62
2022/07/11 06:45:52;;;;;;;2.58;1.33;;;;;;;19.08;67.86;100589.88;5092059;28;20064;-64
2022/07/11 06:48:20;;;;;;;2.17;1.42;;;;;;;19.13;67.71;100585.00;5090395;28;20056;-63
2022/07/11 06:50:48;;;;;;;1.63;1.33;;;;;;;19.22;67.56;100598.59;5090830;28;20093;-62
2022/07/11 06:53:14;;;;;;;2.53;1.45;;;;;;;19.29;67.24;100588.25;5091963;28;20048;-63
2022/07/11 06:55:41;;;;;;;2.03;1.40;;;;;;;19.34;67.41;100589.59;5091952;28;20052;-63
2022/07/11 06:58:08;;;;;;;1.40;1.30;;;;;;;19.39;67.13;100586.53;5091732;28;20048;-63
2022/07/11 07:00:50;;;;;;;1.63;1.45;;;;;;;19.47;66.98;100589.44;5091811;28;20058;-63
2022/07/11 07:03:17;;;;;;;2.05;1.23;;;;;;;19.53;66.77;100586.28;5091952;28;20407;-64
2022/07/11 07:05:46;;;;;;;2.33;1.23;;;;;;;19.58;66.69;100587.72;5090335;28;20061;-62
2022/07/11 07:08:13;;;;;;;2.08;1.60;;;;;;;19.62;66.11;100586.50;5091605;28;20046;-62
2022/07/11 07:10:40;;;;;;;1.50;1.40;;;;;;;19.64;66.02;100579.19;5091414;28;20045;-63
2022/07/11 07:13:06;;;;;;;1.63;1.30;;;;;;;19.67;66.66;100587.78;5091699;28;20419;-64
2022/07/11 07:15:33;;;;;;;1.63;1.20;;;;;;;19.72;66.42;100581.22;5091977;28;20389;-64
2022/07/11 07:17:59;;;;;;;3.03;1.30;;;;;;;19.76;66.22;100583.53;5091480;28;20121;-63
2022/07/11 07:20:29;;;;;;;1.42;1.33;;;;;;;19.82;66.18;100576.81;5090111;28;20048;-63
2022/07/11 07:22:56;;;;;;;1.50;1.40;;;;;;;19.88;66.27;100575.44;5091489;28;20044;-63
2022/07/11 07:25:23;;;;;;;1.67;1.40;;;;;;;19.96;66.45;100585.50;5091233;28;20059;-63
2022/07/11 07:27:49;;;;;;;1.70;1.30;;;;;;;20.03;66.19;100579.53;5091615;28;20048;-62
2022/07/11 07:30:16;;;;;;;1.88;1.30;;;;;;;20.10;66.12;100582.53;5089614;28;20404;-61
2022/07/11 07:32:43;;;;;;;1.30;1.02;;;;;;;20.18;65.67;100588.09;5091038;28;20496;-63
2022/07/11 07:35:10;;;;;;;1.20;1.00;;;;;;;20.24;65.17;100593.91;5091296;28;20054;-62
2022/07/11 07:37:37;;;;;;;1.00;0.90;;;;;;;20.28;64.87;100587.31;5089864;28;20060;-62
2022/07/11 07:40:04;;;;;;;0.73;0.73;;;;;;;20.29;64.65;100586.31;5090454;28;20120;-62
2022/07/11 07:42:30;;;;;;;0.70;0.70;;;;;;;20.30;64.32;100585.38;5090189;28;20056;-62
2022/07/11 07:44:57;;;;;;;0.95;0.68;;;;;;;20.29;64.61;100589.00;5089902;28;20051;-64
2022/07/11 07:47:24;;;;;;;0.70;0.45;;;;;;;20.28;63.76;100587.31;5090845;28;20063;-62
2022/07/11 07:49:50;;;;;;;0.63;0.63;;;;;;;20.28;63.85;100589.97;5090823;28;20070;-62
2022/07/11 07:52:17;;;;;;;0.63;0.50;;;;;;;20.27;64.43;100588.28;5090990;28;20044;-62
2022/07/11 07:54:43;;;;;;;0.50;0.50;;;;;;;20.26;64.16;100591.94;5091055;28;20056;-63
2022/07/11 07:57:10;;;;;;;0.55;0.55;;;;;;;20.27;64.31;100588.28;5090743;28;20051;-61
2022/07/11 07:59:36;;;;;;;0.70;0.70;;;;;;;20.30;64.00;100582.69;5090747;28;20040;-62
2022/07/11 08:02:03;;;;;;;0.40;0.40;;;;;;;20.33;64.52;100585.09;5091043;28;20476;-62
2022/07/11 08:04:30;;;;;;;0.70;0.70;;;;;;;20.39;64.40;100586.38;5090854;28;20190;-63
2022/07/11 08:06:59;;;;;;;0.60;0.60;;;;;;;20.46;64.39;100576.88;5090576;28;20052;-63
2022/07/11 08:09:26;;;;;;;1.90;0.70;;;;;;;20.53;65.01;100571.84;5090582;28;20093;-63
2022/07/11 08:11:53;;;;;;;0.60;0.50;;;;;;;20.62;65.36;100573.72;5090939;28;20105;-62
2022/07/11 08:14:21;;;;;;;0.65;0.40;;;;;;;20.72;64.85;100579.13;5090553;28;20060;-62
2022/07/11 08:16:48;;;;;;;0.95;0.50;;;;;;;20.83;64.88;100576.34;5090544;28;20498;-62
2022/07/11 08:19:15;;;;;;;0.35;0.35;;;;;;;20.96;64.73;100581.50;5090416;28;20056;-63
2022/07/11 08:21:42;;;;;;;0.80;0.50;;;;;;;21.07;64.23;100587.72;5090784;28;20048;-64
2022/07/11 08:24:09;;;;;;;0.30;0.30;;;;;;;21.18;63.97;100586.75;5090559;28;20414;-62
2022/07/11 08:26:36;;;;;;;0.22;0.20;;;;;;;21.27;63.21;100591.28;5090584;28;20075;-62
2022/07/11 08:29:04;;;;;;;1.85;0.20;;;;;;;21.35;62.67;100604.84;5090431;28;20052;-63
2022/07/11 08:31:31;;;;;;;0.30;0.30;;;;;;;21.41;62.44;100590.06;5089271;28;20051;-62
2022/07/11 08:33:59;;;;;;;0.30;0.30;;;;;;;21.47;62.31;100596.72;5090549;28;20084;-63
2022/07/11 08:36:28;;;;;;;0.57;0.28;;;;;;;21.52;62.10;100602.50;5090667;28;20048;-62
2022/07/11 08:38:55;;;;;;;0.20;0.20;;;;;;;21.55;61.77;100604.03;5090450;28;20059;-62
2022/07/11 08:41:22;;;;;;;0.40;0.40;;;;;;;21.54;61.21;100613.06;5090286;28;20052;-62
2022/07/11 08:43:49;;;;;;;0.80;0.30;;;;;;;21.51;60.62;100616.03;5090476;28;20052;-63
2022/07/11 08:46:16;;;;;;;0.47;0.30;;;;;;;21.45;60.23;100612.91;5090187;28;20635;-62
2022/07/11 08:48:48;;;;;;;0.45;0.45;;;;;;;21.34;59.96;100610.34;5089079;28;20056;-62
2022/07/11 08:51:15;;;;;;;0.65;0.40;;;;;;;21.29;60.27;100609.91;5091093;28;20051;-65
2022/07/11 08:53:44;;;;;;;0.38;0.30;;;;;;;21.20;60.67;100608.91;5094211;28;20091;-64
2022/07/11 08:56:17;;;;;;;0.38;0.38;;;;;;;21.14;60.57;100609.44;5093098;28;20048;-62
2022/07/11 08:58:47;;;;;;;;;;;;;;;21.07;61.58;100598.44;5094567;28;20086;-62
2022/07/11 09:01:29;;;;;;;0.40;0.40;;;;;;;21.07;61.07;100601.09;5094170;28;19923;-62
2022/07/11 09:03:57;;;;;;;0.50;0.40;;;;;;;21.08;62.05;100600.13;5094028;28;20047;-62
2022/07/11 09:06:24;;;;;;;0.32;0.32;;;;;;;21.11;62.77;100597.19;5094151;28;20052;-62
2022/07/11 09:08:51;;;;;;;0.40;0.40;;;;;;;21.17;62.75;100598.47;5093727;28;20587;-64
2022/07/11 09:11:17;;;;;;;0.50;0.50;;;;;;;21.27;62.43;100595.81;5093856;28;20101;-63
2022/07/11 09:13:44;;;;;;;0.90;0.40;;;;;;;21.36;62.60;100595.00;5092480;28;20056;-63
2022/07/11 09:16:11;;;;;;;0.57;0.40;;;;;;;21.48;61.91;100596.56;5093919;28;20055;-63
2022/07/11 09:18:39;;;;;;;0.40;0.40;;;;;;;21.58;61.89;100601.09;5093353;28;20048;-64
2022/07/11 09:26:46;;;;;;;2.50;0.50;;;;;;;21.79;60.56;100598.31;5093971;28;20488;-66
2022/07/11 09:29:15;;;;;;;0.20;0.20;;;;;;;21.83;60.38;100594.38;5093396;28;20067;-63
2022/07/11 09:31:46;;;;;;;1.00;0.50;;;;;;;21.84;59.85;100593.41;5093744;28;20060;-63
2022/07/11 09:34:16;;;;;;;0.50;0.50;;;;;;;21.83;59.92;100594.38;5093571;28;20048;-62
2022/07/11 09:36:47;;;;;;;2.25;0.80;;;;;;;21.77;58.77;100591.41;5092438;28;20052;-63
2022/07/11 09:39:18;;;;;;;0.85;0.85;;;;;;;21.69;59.27;100584.91;5092025;28;20143;-63
2022/07/11 09:41:46;;;;;;;1.77;0.95;;;;;;;21.65;59.71;100591.53;5092275;28;20048;-64
2022/07/11 09:44:18;;;;;;;1.00;0.90;;;;;;;21.58;59.68;100598.41;5093414;28;20044;-62
2022/07/11 09:46:47;;;;;;;1.58;0.82;;;;;;;21.57;60.23;100602.91;5091910;28;20537;-63
2022/07/11 09:49:16;;;;;;;0.73;0.73;;;;;;;21.56;60.04;100611.09;5093187;28;20056;-63
2022/07/11 09:51:43;;;;;;;0.65;0.65;;;;;;;21.55;60.10;100606.72;5092111;28;20131;-63
2022/07/11 09:54:11;;;;;;;1.02;0.70;;;;;;;21.54;60.36;100611.25;5093166;28;20393;-64
2022/07/11 09:56:43;;;;;;;0.85;0.73;;;;;;;21.54;60.01;100613.94;5093088;28;20048;-62
2022/07/11 09:59:25;;;;;;;1.20;1.08;;;;;;;21.56;60.39;100619.13;5091637;28;20071;-63
2022/07/11 10:01:51;;;;;;;0.95;0.88;;;;;;;21.57;60.13;100616.31;5092943;28;20070;-63
2022/07/11 10:04:19;;;;;;;1.50;0.90;;;;;;;21.56;59.99;100627.16;5092944;28;20051;-64
2022/07/11 10:06:46;;;;;;;2.33;0.70;;;;;;;21.54;59.88;100623.78;5093170;28;20056;-63
2022/07/11 10:09:12;;;;;;;0.80;0.80;;;;;;;21.50;59.90;100619.69;5092700;28;20137;-62
2022/07/11 10:11:39;;;;;;;2.97;1.00;;;;;;;21.45;59.49;100612.06;5092924;28;20085;-63
2022/07/11 10:14:07;;;;;;;1.10;1.00;;;;;;;21.38;59.62;100613.59;5092644;28;20820;-63
2022/07/11 10:16:38;;;;;;;0.85;0.82;;;;;;;21.34;60.11;100618.38;5092939;28;20151;-63
2022/07/11 10:19:13;;;;;;;0.95;0.88;;;;;;;21.28;60.37;100611.75;5091138;28;20488;-63
2022/07/11 10:21:50;;;;;;;1.42;0.90;;;;;;;21.28;60.58;100610.91;5091413;28;20055;-63
2022/07/11 10:24:25;;;;;;;1.30;0.90;;;;;;;21.27;60.64;100615.41;5091452;28;20048;-64
2022/07/11 10:27:10;;;;;;;0.90;0.90;;;;;;;21.31;60.37;100616.00;5091462;28;20075;-63
2022/07/11 10:29:51;;;;;;;0.70;0.70;;;;;;;21.31;60.37;100621.34;5092527;28;20070;-64
2022/07/11 10:32:19;;;;;;;0.73;0.60;;;;;;;21.36;60.62;100611.06;5091233;28;20500;-63
2022/07/11 10:35:05;;;;;;;0.60;0.60;;;;;;;21.36;60.52;100621.78;5091289;28;20454;-63
2022/07/11 10:37:50;;;;;;;0.80;0.60;;;;;;;21.33;60.79;100624.72;5092465;28;20058;-63
2022/07/11 10:40:45;;;;;;;1.65;0.50;;;;;;;21.35;60.90;100625.44;5092076;28;20167;-65
2022/07/11 10:43:19;;;;;;;3.50;0.70;;;;;;;21.42;60.64;100625.75;5092195;28;20139;-63
2022/07/11 10:45:55;;;;;;;1.00;0.52;;;;;;;21.43;60.44;100627.44;5090905;28;20048;-63
2022/07/11 10:48:23;;;;;;;2.05;0.40;;;;;;;21.47;60.27;100632.38;5091998;28;20500;-63
2022/07/11 10:51:03;;;;;;;1.30;0.68;;;;;;;21.45;60.40;100626.31;5092079;28;20047;-63
2022/07/11 10:53:34;;;;;;;0.50;0.40;;;;;;;21.47;60.92;100629.72;5092038;28;20420;-65
2022/07/11 10:56:19;;;;;;;0.82;0.60;;;;;;;21.46;60.60;100629.84;5090880;28;20062;-63
2022/07/11 10:59:17;;;;;;;1.15;0.50;;;;;;;21.50;60.37;100639.28;5092081;28;20048;-64
2022/07/11 11:02:05;;;;;;;0.57;0.50;;;;;;;21.52;60.75;100636.50;5090544;28;20063;-64
2022/07/11 11:04:42;;;;;;;0.55;0.38;;;;;;;21.57;60.73;100637.75;5091811;28;20048;-63
2022/07/11 11:07:39;;;;;;;1.58;0.40;;;;;;;21.60;60.31;100626.75;5090589;28;20044;-63
2022/07/11 11:10:41;;;;;;;1.38;0.60;;;;;;;21.67;60.31;100620.81;5091505;28;20105;-63
2022/07/11 11:13:09;;;;;;;1.10;0.50;;;;;;;21.77;60.53;100620.88;5090952;28;20047;-71
2022/07/11 11:15:41;;;;;;;1.05;0.40;;;;;;;21.78;60.16;100623.44;5091683;28;20040;-62
2022/07/11 11:18:23;;;;;;;0.57;0.57;;;;;;;21.79;60.20;100635.00;5091330;28;20105;-62
2022/07/11 11:21:02;;;;;;;0.63;0.40;;;;;;;21.82;59.78;100634.69;5091120;28;20050;-63
2022/07/11 11:23:37;;;;;;;0.57;0.50;;;;;;;21.85;59.57;100639.78;5089977;28;20056;-62
2022/07/11 11:26:10;;;;;;;1.08;0.50;;;;;;;21.87;59.60;100635.16;5089808;28;20059;-64
2022/07/11 11:28:38;;;;;;;0.40;0.40;;;;;;;21.88;59.23;100634.16;5090479;28;20052;-63
2022/07/11 11:31:07;;;;;;;0.60;0.60;;;;;;;21.85;59.43;100635.28;5090164;28;20079;-62
2022/07/11 11:33:36;;;;;;;0.73;0.60;;;;;;;21.85;59.62;100634.44;5089798;28;20063;-64
2022/07/11 11:36:04;;;;;;;0.70;0.70;;;;;;;21.85;59.77;100631.75;5091218;28;20666;-62